createdAt,value
2019-05-25T00:02:14.017Z,13.54
2019-05-25T00:04:42.348Z,13.49
2019-05-25T00:07:10.658Z,13.44
2019-05-25T00:09:38.964Z,13.44
2019-05-25T00:12:07.272Z,13.42
2019-05-25T00:14:35.554Z,13.38
2019-05-25T00:17:04.028Z,13.38
2019-05-25T00:19:32.369Z,13.43
2019-05-25T00:22:00.739Z,13.39
2019-05-25T00:24:29.176Z,13.40
2019-05-25T00:26:57.465Z,13.47
2019-05-25T00:29:25.984Z,13.42
2019-05-25T00:31:54.321Z,13.38
2019-05-25T00:34:22.945Z,13.39
2019-05-25T00:36:51.231Z,13.35
2019-05-25T00:39:19.634Z,13.34
2019-05-25T00:41:48.295Z,13.34
2019-05-25T00:44:16.662Z,13.37
2019-05-25T00:46:44.981Z,13.40
2019-05-25T00:49:13.423Z,13.37
2019-05-25T00:51:41.806Z,13.36
2019-05-25T00:54:10.105Z,13.37
2019-05-25T00:56:38.392Z,13.35
2019-05-25T00:59:06.690Z,13.38
2019-05-25T01:01:34.994Z,13.39
2019-05-25T01:04:03.416Z,13.39
2019-05-25T01:06:34.834Z,13.37
2019-05-25T01:09:03.555Z,13.36
2019-05-25T01:11:32.637Z,13.24
2019-05-25T01:14:00.947Z,13.27
2019-05-25T01:16:29.208Z,13.25
2019-05-25T01:18:57.510Z,13.20
2019-05-25T01:21:25.855Z,13.20
2019-05-25T01:23:54.180Z,13.18
2019-05-25T01:26:22.482Z,13.18
2019-05-25T01:28:50.781Z,13.22
2019-05-25T01:31:19.070Z,13.19
2019-05-25T01:33:47.397Z,13.22
2019-05-25T01:36:15.698Z,13.26
2019-05-25T01:38:44.075Z,13.27
2019-05-25T01:41:12.477Z,13.28
2019-05-25T01:43:40.763Z,13.27
2019-05-25T01:46:09.344Z,13.27
2019-05-25T01:48:37.654Z,13.29
2019-05-25T01:51:05.974Z,13.26
2019-05-25T01:53:34.655Z,13.23
2019-05-25T01:56:02.938Z,13.24
2019-05-25T01:58:31.270Z,13.24
2019-05-25T02:00:59.588Z,13.19
2019-05-25T02:03:27.969Z,13.18
2019-05-25T02:05:56.383Z,13.12
2019-05-25T02:08:24.831Z,13.13
2019-05-25T02:10:53.309Z,13.11
2019-05-25T02:13:21.597Z,13.16
2019-05-25T02:15:49.979Z,13.14
2019-05-25T02:18:18.283Z,13.14
2019-05-25T02:20:46.628Z,13.11
2019-05-25T02:23:15.061Z,13.12
2019-05-25T02:25:43.375Z,13.13
2019-05-25T02:28:11.657Z,13.13
2019-05-25T02:30:40.075Z,13.09
2019-05-25T02:33:08.356Z,13.09
2019-05-25T02:35:36.807Z,13.03
2019-05-25T02:38:05.108Z,13.04
2019-05-25T02:40:33.405Z,13.03
2019-05-25T02:43:01.742Z,13.04
2019-05-25T02:45:30.021Z,13.05
2019-05-25T02:47:58.385Z,13.03
2019-05-25T02:50:26.783Z,12.99
2019-05-25T02:52:55.139Z,12.98
2019-05-25T02:55:33.918Z,13.00
2019-05-25T02:57:53.841Z,13.03
2019-05-25T03:00:32.682Z,13.04
2019-05-25T03:03:01.133Z,13.04
2019-05-25T03:05:29.414Z,13.04
2019-05-25T03:07:58.159Z,13.01
2019-05-25T03:10:26.483Z,12.99
2019-05-25T03:12:56.481Z,12.98
2019-05-25T03:15:24.885Z,13.02
2019-05-25T03:17:53.256Z,13.00
2019-05-25T03:20:21.536Z,13.05
2019-05-25T03:22:49.834Z,13.05
2019-05-25T03:25:18.203Z,13.08
2019-05-25T03:27:46.720Z,13.06
2019-05-25T03:30:15.091Z,13.09
2019-05-25T03:32:43.371Z,13.11
2019-05-25T03:35:11.701Z,13.07
2019-05-25T03:37:39.985Z,13.04
2019-05-25T03:40:08.366Z,12.98
2019-05-25T03:42:36.683Z,13.02
2019-05-25T03:45:06.586Z,12.97
2019-05-25T03:47:34.894Z,13.00
2019-05-25T03:50:03.274Z,12.97
2019-05-25T03:52:31.607Z,12.95
2019-05-25T03:55:00.076Z,12.96
2019-05-25T03:57:28.377Z,12.96
2019-05-25T03:59:56.782Z,12.95
2019-05-25T04:02:25.079Z,12.93
2019-05-25T04:04:53.399Z,12.92
2019-05-25T04:07:21.762Z,12.88
2019-05-25T04:09:50.074Z,12.86
2019-05-25T04:12:18.417Z,12.84
2019-05-25T04:14:46.831Z,12.83
2019-05-25T04:17:15.181Z,12.84
2019-05-25T04:19:43.563Z,12.85
2019-05-25T04:22:11.920Z,12.85
2019-05-25T04:24:40.199Z,12.87
2019-05-25T04:27:08.467Z,12.89
2019-05-25T04:29:36.881Z,12.88
2019-05-25T04:32:05.252Z,12.92
2019-05-25T04:34:33.529Z,12.96
2019-05-25T04:37:02.082Z,12.97
2019-05-25T04:39:30.585Z,12.97
2019-05-25T04:41:58.861Z,13.00
2019-05-25T04:44:27.853Z,13.00
2019-05-25T04:46:56.340Z,12.93
2019-05-25T04:49:24.720Z,12.90
2019-05-25T04:51:53.027Z,12.91
2019-05-25T04:54:21.386Z,12.87
2019-05-25T04:56:49.665Z,12.83
2019-05-25T04:59:18.345Z,12.81
2019-05-25T05:01:46.741Z,12.80
2019-05-25T05:04:15.011Z,12.81
2019-05-25T05:06:43.317Z,12.83
2019-05-25T05:09:11.728Z,12.82
2019-05-25T05:11:40.343Z,12.82
2019-05-25T05:14:08.623Z,12.81
2019-05-25T05:16:37.031Z,12.81
2019-05-25T05:19:05.308Z,12.80
2019-05-25T05:21:33.959Z,12.86
2019-05-25T05:24:02.336Z,12.90
2019-05-25T05:26:30.623Z,12.87
2019-05-25T05:28:58.965Z,12.85
2019-05-25T05:31:27.366Z,12.86
2019-05-25T05:33:55.646Z,12.95
2019-05-25T05:36:24.219Z,12.92
2019-05-25T05:38:52.554Z,12.92
2019-05-25T05:41:20.840Z,12.93
2019-05-25T05:43:49.123Z,12.97
2019-05-25T05:46:18.070Z,12.98
2019-05-25T05:48:46.685Z,12.94
2019-05-25T05:51:15.191Z,13.02
2019-05-25T05:53:43.436Z,13.09
2019-05-25T05:56:11.884Z,13.15
2019-05-25T05:58:41.760Z,13.12
2019-05-25T06:01:10.043Z,13.20
2019-05-25T06:03:38.340Z,13.15
2019-05-25T06:06:06.637Z,13.16
2019-05-25T06:08:35.019Z,13.15
2019-05-25T06:11:03.345Z,13.13
2019-05-25T06:13:32.490Z,13.20
2019-05-25T06:16:00.778Z,13.13
2019-05-25T06:18:29.194Z,13.14
2019-05-25T06:20:57.473Z,13.15
2019-05-25T06:23:25.750Z,13.15
2019-05-25T06:25:54.108Z,13.17
2019-05-25T06:28:22.654Z,13.19
2019-05-25T06:30:51.046Z,13.19
2019-05-25T06:33:19.427Z,13.27
2019-05-25T06:35:47.724Z,13.36
2019-05-25T06:38:16.109Z,13.41
2019-05-25T06:40:44.450Z,13.49
2019-05-25T06:43:12.852Z,13.61
2019-05-25T06:45:41.510Z,13.74
2019-05-25T06:48:09.937Z,13.77
2019-05-25T06:50:38.220Z,13.81
2019-05-25T06:53:06.549Z,13.82
2019-05-25T06:55:35.810Z,13.91
2019-05-25T06:58:04.264Z,13.93
2019-05-25T07:00:32.650Z,14.00
2019-05-25T07:03:00.945Z,14.03
2019-05-25T07:05:29.259Z,14.06
2019-05-25T07:07:57.742Z,14.07
2019-05-25T07:10:26.066Z,14.12
2019-05-25T07:12:54.390Z,14.10
2019-05-25T07:15:22.668Z,14.04
2019-05-25T07:17:50.992Z,14.01
2019-05-25T07:20:19.275Z,14.00
2019-05-25T07:22:47.916Z,14.02
2019-05-25T07:25:19.721Z,14.05
2019-05-25T07:27:58.677Z,13.99
2019-05-25T07:30:16.353Z,13.90
2019-05-25T07:32:44.943Z,13.91
2019-05-25T07:35:13.392Z,13.84
2019-05-25T07:37:41.688Z,13.84
2019-05-25T07:40:10.110Z,13.93
2019-05-25T07:42:38.481Z,13.96
2019-05-25T07:45:07.216Z,14.03
2019-05-25T07:47:35.955Z,14.10
2019-05-25T07:50:07.669Z,14.20
2019-05-25T07:52:35.947Z,14.30
2019-05-25T07:55:06.293Z,14.29
2019-05-25T07:57:34.744Z,14.37
2019-05-25T08:00:04.569Z,14.46
2019-05-25T08:02:32.854Z,14.61
2019-05-25T08:05:01.215Z,14.66
2019-05-25T08:07:29.494Z,14.78
2019-05-25T08:09:57.919Z,14.79
2019-05-25T08:12:26.193Z,14.81
2019-05-25T08:14:54.478Z,14.82
2019-05-25T08:17:22.951Z,14.83
2019-05-25T08:19:51.286Z,14.74
2019-05-25T08:22:19.560Z,14.72
2019-05-25T08:24:47.970Z,14.73
2019-05-25T08:27:16.319Z,14.82
2019-05-25T08:29:44.709Z,14.86
2019-05-25T08:32:13.125Z,14.83
2019-05-25T08:34:41.411Z,14.67
2019-05-25T08:37:09.732Z,14.61
2019-05-25T08:39:38.142Z,14.59
2019-05-25T08:42:06.478Z,14.48
2019-05-25T08:44:34.757Z,14.38
2019-05-25T08:47:03.726Z,14.29
2019-05-25T08:49:32.134Z,14.25
2019-05-25T08:52:03.988Z,14.14
2019-05-25T08:54:30.440Z,14.11
2019-05-25T08:56:58.728Z,14.15
2019-05-25T08:59:27.035Z,14.15
2019-05-25T09:01:55.354Z,14.17
2019-05-25T09:04:25.614Z,14.25
2019-05-25T09:06:53.678Z,14.27
2019-05-25T09:09:22.050Z,14.43
2019-05-25T09:11:50.427Z,14.47
2019-05-25T09:14:18.940Z,14.59
2019-05-25T09:16:47.245Z,14.72
2019-05-25T09:19:15.544Z,14.77
2019-05-25T09:22:01.017Z,14.80
2019-05-25T09:24:13.947Z,14.85
2019-05-25T09:26:42.547Z,14.94
2019-05-25T09:29:11.024Z,15.01
2019-05-25T09:31:39.437Z,15.00
2019-05-25T09:34:07.731Z,15.05
2019-05-25T09:36:35.993Z,15.08
2019-05-25T09:39:06.823Z,15.12
2019-05-25T09:41:35.147Z,15.15
2019-05-25T09:44:04.199Z,15.16
2019-05-25T09:46:32.654Z,15.18
2019-05-25T09:49:02.621Z,15.20
2019-05-25T09:51:31.351Z,15.21
2019-05-25T09:53:59.658Z,15.21
2019-05-25T09:56:27.961Z,15.23
2019-05-25T09:58:56.400Z,15.24
2019-05-25T10:01:24.897Z,15.30
2019-05-25T10:03:56.498Z,15.35
2019-05-25T10:06:23.294Z,15.32
2019-05-25T10:08:51.604Z,15.27
2019-05-25T10:11:19.890Z,15.24
2019-05-25T10:13:48.197Z,15.25
2019-05-25T10:16:16.609Z,15.22
2019-05-25T10:18:44.887Z,15.19
2019-05-25T10:21:15.061Z,15.22
2019-05-25T10:23:43.260Z,15.31
2019-05-25T10:26:11.551Z,15.38
2019-05-25T10:28:39.844Z,15.47
2019-05-25T10:31:08.191Z,15.51
2019-05-25T10:33:36.472Z,15.60
2019-05-25T10:36:04.948Z,15.68
2019-05-25T10:38:33.246Z,15.71
2019-05-25T10:41:01.645Z,15.64
2019-05-25T10:43:29.932Z,15.61
2019-05-25T10:45:58.258Z,15.58
2019-05-25T10:48:26.666Z,15.53
2019-05-25T10:50:55.151Z,15.53
2019-05-25T10:53:23.447Z,15.52
2019-05-25T10:55:51.870Z,15.55
2019-05-25T10:58:20.176Z,15.64
2019-05-25T11:00:49.085Z,15.67
2019-05-25T11:03:17.504Z,15.68
2019-05-25T11:05:45.788Z,15.72
2019-05-25T11:08:14.162Z,15.67
2019-05-25T11:10:42.694Z,15.70
2019-05-25T11:13:11.033Z,15.74
2019-05-25T11:15:40.580Z,15.82
2019-05-25T11:18:09.073Z,15.89
2019-05-25T11:20:37.356Z,15.81
2019-05-25T11:23:05.886Z,15.83
2019-05-25T11:25:34.194Z,15.83
2019-05-25T11:28:02.594Z,15.91
2019-05-25T11:30:30.867Z,16.02
2019-05-25T11:32:59.152Z,16.15
2019-05-25T11:35:27.504Z,16.43
2019-05-25T11:37:57.352Z,16.72
2019-05-25T11:40:25.702Z,17.13
2019-05-25T11:42:53.994Z,17.53
2019-05-25T11:45:22.440Z,17.66
2019-05-25T11:47:50.717Z,17.66
2019-05-25T11:50:19.366Z,17.76
2019-05-25T11:52:48.014Z,17.86
2019-05-25T11:55:16.334Z,17.96
2019-05-25T11:57:44.743Z,17.96
2019-05-25T12:00:24.502Z,18.04
2019-05-25T12:02:45.285Z,18.06
2019-05-25T12:05:13.622Z,18.03
2019-05-25T12:07:44.716Z,17.98
2019-05-25T12:10:12.090Z,17.89
2019-05-25T12:12:40.579Z,17.85
2019-05-25T12:15:08.923Z,17.85
2019-05-25T12:17:37.294Z,17.80
2019-05-25T12:20:08.050Z,17.84
2019-05-25T12:22:36.324Z,17.88
2019-05-25T12:25:06.572Z,17.95
2019-05-25T12:27:34.857Z,18.35
2019-05-25T12:30:03.326Z,18.66
2019-05-25T12:32:31.813Z,18.79
2019-05-25T12:35:00.152Z,18.68
2019-05-25T12:37:28.451Z,18.54
2019-05-25T12:39:56.933Z,18.43
2019-05-25T12:42:26.011Z,18.50
2019-05-25T12:44:54.296Z,18.57
2019-05-25T12:47:22.656Z,18.55
2019-05-25T12:49:51.345Z,18.52
2019-05-25T12:52:19.742Z,18.57
2019-05-25T12:54:48.197Z,18.87
2019-05-25T12:57:16.502Z,19.23
2019-05-25T12:59:46.657Z,19.55
2019-05-25T13:02:14.927Z,19.68
2019-05-25T13:04:43.257Z,19.63
2019-05-25T13:07:11.602Z,19.66
2019-05-25T13:09:39.923Z,19.73
2019-05-25T13:12:08.414Z,19.71
2019-05-25T13:14:36.719Z,19.65
2019-05-25T13:17:05.268Z,19.71
2019-05-25T13:19:33.685Z,19.60
2019-05-25T13:22:01.972Z,19.59
2019-05-25T13:24:30.256Z,19.52
2019-05-25T13:26:58.657Z,19.64
2019-05-25T13:29:27.058Z,19.88
2019-05-25T13:31:55.338Z,19.84
2019-05-25T13:34:24.128Z,19.71
2019-05-25T13:36:52.401Z,19.72
2019-05-25T13:39:20.887Z,19.84
2019-05-25T13:41:50.208Z,19.83
2019-05-25T13:44:18.500Z,19.82
2019-05-25T13:46:46.849Z,19.82
2019-05-25T13:49:15.246Z,19.88
2019-05-25T13:51:44.468Z,20.01
2019-05-25T13:54:13.529Z,20.26
2019-05-25T13:56:41.836Z,20.17
2019-05-25T13:59:10.112Z,19.99
2019-05-25T14:01:38.542Z,20.13
2019-05-25T14:04:06.822Z,20.48
2019-05-25T14:06:35.105Z,20.70
2019-05-25T14:09:04.846Z,20.82
2019-05-25T14:11:33.603Z,20.82
2019-05-25T14:14:01.927Z,20.64
2019-05-25T14:16:30.257Z,20.58
2019-05-25T14:18:58.541Z,20.48
2019-05-25T14:21:26.854Z,20.36
2019-05-25T14:23:55.185Z,20.28
2019-05-25T14:26:23.494Z,20.30
2019-05-25T14:28:51.773Z,20.31
2019-05-25T14:31:20.180Z,20.59
2019-05-25T14:33:48.635Z,20.75
2019-05-25T14:36:17.022Z,21.10
2019-05-25T14:38:45.467Z,21.23
2019-05-25T14:41:13.820Z,21.02
2019-05-25T14:43:42.142Z,20.82
2019-05-25T14:46:10.609Z,20.88
2019-05-25T14:48:40.248Z,20.96
2019-05-25T14:53:35.974Z,20.92
2019-05-25T14:56:04.390Z,20.83
2019-05-25T14:58:32.704Z,20.85
2019-05-25T15:01:01.088Z,20.76
2019-05-25T15:03:29.664Z,20.61
2019-05-25T15:05:59.798Z,20.52
2019-05-25T15:08:28.174Z,20.37
2019-05-25T15:10:56.687Z,20.27
2019-05-25T15:13:25.037Z,20.19
2019-05-25T15:15:53.323Z,20.17
2019-05-25T15:18:21.623Z,20.07
2019-05-25T15:20:49.903Z,20.01
2019-05-25T15:23:18.205Z,19.92
2019-05-25T15:25:46.481Z,19.85
2019-05-25T15:28:14.839Z,19.71
2019-05-25T15:30:43.128Z,19.60
2019-05-25T15:33:11.383Z,19.61
2019-05-25T15:35:39.862Z,19.63
2019-05-25T15:38:08.141Z,19.61
2019-05-25T15:40:39.026Z,19.51
2019-05-25T15:43:06.572Z,19.55
2019-05-25T15:45:34.852Z,19.50
2019-05-25T15:48:03.150Z,19.57
2019-05-25T15:50:31.559Z,19.66
2019-05-25T15:52:59.914Z,19.65
2019-05-25T15:55:28.195Z,19.64
2019-05-25T15:57:56.597Z,19.56
2019-05-25T16:00:46.089Z,19.53
2019-05-25T16:03:15.404Z,19.55
2019-05-25T16:05:43.755Z,19.79
2019-05-25T16:08:12.132Z,19.99
2019-05-25T16:10:40.419Z,20.03
2019-05-25T16:13:08.792Z,19.96
2019-05-25T16:15:37.099Z,20.14
2019-05-25T16:18:05.422Z,20.24
2019-05-25T16:20:33.941Z,20.41
2019-05-25T16:23:02.288Z,20.59
2019-05-25T16:25:30.765Z,20.67
2019-05-25T16:27:59.110Z,20.75
2019-05-25T16:30:31.270Z,20.79
2019-05-25T16:33:11.589Z,20.83
2019-05-25T16:35:27.690Z,20.87
2019-05-25T16:37:56.293Z,20.87
2019-05-25T16:40:25.039Z,20.89
2019-05-25T16:42:53.313Z,20.81
2019-05-25T16:45:21.595Z,20.75
2019-05-25T16:47:49.994Z,20.70
2019-05-25T16:50:19.144Z,20.74
2019-05-25T16:52:47.675Z,20.78
2019-05-25T16:55:16.162Z,20.79
2019-05-25T16:57:45.220Z,20.71
2019-05-25T17:00:14.872Z,20.61
2019-05-25T17:02:43.249Z,20.66
2019-05-25T17:05:11.692Z,20.64
2019-05-25T17:07:39.985Z,20.65
2019-05-25T17:10:08.292Z,20.67
2019-05-25T17:12:36.576Z,20.39
2019-05-25T17:15:06.540Z,20.40
2019-05-25T17:17:34.815Z,20.48
2019-05-25T17:20:03.198Z,20.50
2019-05-25T17:22:31.571Z,20.46
2019-05-25T17:24:59.838Z,20.25
2019-05-25T17:27:28.129Z,20.10
2019-05-25T17:29:56.451Z,20.04
2019-05-25T17:32:24.850Z,20.07
2019-05-25T17:34:53.143Z,19.96
2019-05-25T17:37:21.417Z,19.87
2019-05-25T17:39:49.746Z,19.85
2019-05-25T17:42:18.105Z,19.89
2019-05-25T17:44:46.584Z,19.70
2019-05-25T17:47:15.060Z,19.68
2019-05-25T17:49:43.433Z,19.62
2019-05-25T17:52:11.867Z,19.58
2019-05-25T17:54:40.138Z,19.40
2019-05-25T17:57:08.458Z,19.31
2019-05-25T17:59:36.724Z,19.24
2019-05-25T18:02:05.070Z,19.17
2019-05-25T18:04:33.374Z,19.06
2019-05-25T18:07:01.649Z,19.03
2019-05-25T18:09:29.990Z,19.03
2019-05-25T18:11:58.408Z,19.06
2019-05-25T18:14:26.700Z,19.17
2019-05-25T18:16:54.997Z,19.21
2019-05-25T18:19:23.402Z,19.19
2019-05-25T18:21:51.688Z,19.11
2019-05-25T18:24:20.166Z,18.97
2019-05-25T18:26:48.519Z,18.86
2019-05-25T18:29:16.796Z,18.78
2019-05-25T18:31:45.110Z,18.77
2019-05-25T18:34:22.147Z,18.72
2019-05-25T18:36:43.684Z,18.68
2019-05-25T18:39:12.153Z,18.67
2019-05-25T18:41:40.438Z,18.66
2019-05-25T18:44:08.839Z,18.63
2019-05-25T18:46:38.207Z,18.57
2019-05-25T18:49:06.623Z,18.50
2019-05-25T18:51:34.971Z,18.43
2019-05-25T18:54:03.490Z,18.32
2019-05-25T18:56:33.285Z,18.21
2019-05-25T18:59:02.314Z,18.09
2019-05-25T19:01:30.775Z,18.00
2019-05-25T19:03:59.054Z,17.96
2019-05-25T19:06:27.332Z,17.88
2019-05-25T19:08:55.911Z,17.85
2019-05-25T19:11:25.287Z,17.74
2019-05-25T19:13:53.568Z,17.65
2019-05-25T19:16:21.878Z,17.53
2019-05-25T19:18:50.356Z,17.42
2019-05-25T19:21:19.006Z,17.38
2019-05-25T19:23:47.279Z,17.39
2019-05-25T19:26:15.600Z,17.43
2019-05-25T19:28:43.898Z,17.39
2019-05-25T19:31:12.183Z,17.30
2019-05-25T19:33:40.629Z,17.20
2019-05-25T19:36:09.076Z,17.10
2019-05-25T19:38:37.354Z,16.94
2019-05-25T19:41:05.682Z,16.78
2019-05-25T19:43:34.005Z,16.70
2019-05-25T19:46:02.305Z,16.63
2019-05-25T19:48:30.689Z,16.55
2019-05-25T19:50:59.092Z,16.55
2019-05-25T19:53:27.423Z,16.51
2019-05-25T19:55:55.831Z,16.46
2019-05-25T19:58:24.115Z,16.43
2019-05-25T20:00:52.402Z,16.38
2019-05-25T20:03:20.713Z,16.35
2019-05-25T20:05:49.009Z,16.33
2019-05-25T20:08:17.366Z,16.29
2019-05-25T20:10:45.729Z,16.22
2019-05-25T20:13:14.010Z,16.15
2019-05-25T20:15:42.466Z,16.07
2019-05-25T20:18:10.805Z,15.96
2019-05-25T20:20:39.168Z,15.86
2019-05-25T20:23:07.475Z,15.78
2019-05-25T20:25:35.943Z,15.72
2019-05-25T20:28:04.352Z,15.65
2019-05-25T20:30:32.706Z,15.59
2019-05-25T20:33:00.997Z,15.50
2019-05-25T20:35:33.493Z,15.44
2019-05-25T20:38:00.940Z,15.38
2019-05-25T20:40:29.323Z,15.32
2019-05-25T20:42:57.978Z,15.28
2019-05-25T20:45:26.287Z,15.18
2019-05-25T20:47:54.576Z,15.09
2019-05-25T20:50:23.058Z,15.02
2019-05-25T20:52:51.457Z,14.95
2019-05-25T20:55:19.758Z,14.88
2019-05-25T20:57:48.191Z,14.85
2019-05-25T21:00:17.738Z,14.82
2019-05-25T21:03:04.242Z,14.81
2019-05-25T21:05:17.100Z,14.79
2019-05-25T21:07:45.384Z,14.74
2019-05-25T21:10:13.790Z,14.69
2019-05-25T21:12:42.075Z,14.63
2019-05-25T21:15:10.628Z,14.58
2019-05-25T21:17:38.907Z,14.54
2019-05-25T21:20:07.194Z,14.53
2019-05-25T21:22:35.497Z,14.50
2019-05-25T21:25:06.388Z,14.48
2019-05-25T21:27:34.948Z,14.44
2019-05-25T21:30:03.325Z,14.39
2019-05-25T21:32:31.740Z,14.36
2019-05-25T21:35:00.022Z,14.32
2019-05-25T21:37:28.305Z,14.28
2019-05-25T21:39:56.682Z,14.18
2019-05-25T21:42:25.022Z,14.12
2019-05-25T21:44:53.329Z,14.02
2019-05-25T21:47:21.778Z,13.94
2019-05-25T21:49:50.335Z,13.83
2019-05-25T21:52:18.582Z,13.73
2019-05-25T21:54:46.866Z,13.68
2019-05-25T21:57:15.244Z,13.62
2019-05-25T21:59:43.515Z,13.57
2019-05-25T22:02:11.836Z,13.55
2019-05-25T22:04:41.152Z,13.52
2019-05-25T22:07:09.532Z,13.50
2019-05-25T22:09:37.866Z,13.48
2019-05-25T22:12:06.162Z,13.44
2019-05-25T22:14:34.425Z,13.41
2019-05-25T22:17:03.168Z,13.38
2019-05-25T22:19:31.508Z,13.34
2019-05-25T22:21:59.821Z,13.30
2019-05-25T22:24:28.097Z,13.26
2019-05-25T22:26:56.378Z,13.22
2019-05-25T22:29:24.775Z,13.20
2019-05-25T22:31:53.522Z,13.18
2019-05-25T22:34:21.952Z,13.12
2019-05-25T22:36:50.288Z,13.08
2019-05-25T22:39:18.676Z,13.05
2019-05-25T22:41:47.085Z,13.01
2019-05-25T22:44:15.367Z,12.97
2019-05-25T22:46:44.283Z,12.93
2019-05-25T22:49:12.730Z,12.89
2019-05-25T22:51:41.171Z,12.85
2019-05-25T22:54:10.155Z,12.81
2019-05-25T22:56:38.482Z,12.78
2019-05-25T22:59:06.806Z,12.76
2019-05-25T23:01:35.669Z,12.70
2019-05-25T23:04:04.132Z,12.67
2019-05-25T23:06:32.398Z,12.64
2019-05-25T23:09:00.737Z,12.60
2019-05-25T23:11:29.063Z,12.59
2019-05-25T23:13:57.445Z,12.56
2019-05-25T23:16:25.797Z,12.53
2019-05-25T23:18:54.207Z,12.48
2019-05-25T23:21:22.552Z,12.47
2019-05-25T23:23:50.834Z,12.45
2019-05-25T23:26:19.224Z,12.44
2019-05-25T23:28:47.554Z,12.40
2019-05-25T23:31:15.881Z,12.38
2019-05-25T23:33:44.162Z,12.35
2019-05-25T23:36:12.442Z,12.33
2019-05-25T23:38:40.781Z,12.31
2019-05-25T23:41:09.169Z,12.28
2019-05-25T23:43:37.476Z,12.28
2019-05-25T23:46:05.800Z,12.26
2019-05-25T23:48:34.104Z,12.27
2019-05-25T23:51:02.519Z,12.27
2019-05-25T23:53:30.793Z,12.26
2019-05-25T23:55:59.121Z,12.27
2019-05-25T23:58:27.414Z,12.24
